createdAt,value
2022-09-01T00:00:02.480Z,33.94
2022-09-01T00:02:34.164Z,33.96
2022-09-01T00:05:05.227Z,33.96
2022-09-01T00:07:37.579Z,33.97
2022-09-01T00:10:11.612Z,33.97
2022-09-01T00:12:44.036Z,33.97
2022-09-01T00:15:18.005Z,33.96
2022-09-01T00:17:48.627Z,33.96
2022-09-01T00:20:22.467Z,33.96
2022-09-01T00:22:56.036Z,33.97
2022-09-01T00:25:28.952Z,33.97
2022-09-01T00:28:08.294Z,33.95
2022-09-01T00:30:38.577Z,33.92
2022-09-01T00:33:09.501Z,33.92
2022-09-01T00:38:26.205Z,33.91
2022-09-01T00:40:57.292Z,33.90
2022-09-01T00:43:42.744Z,33.91
2022-09-01T00:46:21.046Z,33.88
2022-09-01T00:49:00.412Z,33.86
2022-09-01T00:51:42.333Z,33.86
2022-09-01T00:54:24.332Z,33.86
2022-09-01T00:56:57.759Z,33.85
2022-09-01T00:59:32.426Z,33.85
2022-09-01T01:02:03.553Z,33.84
2022-09-01T01:04:34.245Z,33.85
2022-09-01T01:07:07.085Z,33.82
2022-09-01T01:09:47.273Z,33.83
2022-09-01T01:12:18.934Z,33.82
2022-09-01T01:14:51.625Z,33.82
2022-09-01T01:17:33.566Z,33.82
2022-09-01T01:20:22.729Z,33.80
2022-09-01T01:23:08.344Z,33.79
2022-09-01T01:25:53.831Z,33.79
2022-09-01T01:28:32.453Z,33.80
2022-09-01T01:31:06.648Z,33.80
2022-09-01T01:33:46.096Z,33.81
2022-09-01T01:36:34.279Z,33.80
2022-09-01T01:42:01.551Z,33.78
2022-09-01T01:44:34.388Z,33.79
2022-09-01T01:47:06.145Z,33.79
2022-09-01T01:49:37.971Z,33.79
2022-09-01T01:52:08.376Z,33.79
2022-09-01T01:54:39.115Z,33.79
2022-09-01T01:57:12.240Z,33.79
2022-09-01T01:59:42.990Z,33.78
2022-09-01T02:02:13.433Z,33.77
2022-09-01T02:04:56.194Z,33.77
2022-09-01T02:07:28.190Z,33.76
2022-09-01T02:10:03.159Z,33.76
2022-09-01T02:12:38.363Z,33.75
2022-09-01T02:15:12.992Z,33.73
2022-09-01T02:17:46.385Z,33.72
2022-09-01T02:20:20.658Z,33.72
2022-09-01T02:22:52.655Z,33.70
2022-09-01T02:25:23.963Z,33.70
2022-09-01T02:28:00.704Z,33.71
2022-09-01T02:30:33.437Z,33.69
2022-09-01T02:33:07.373Z,33.70
2022-09-01T02:35:38.825Z,33.71
2022-09-01T02:38:26.861Z,33.70
2022-09-01T02:40:58.846Z,33.69
2022-09-01T02:43:34.397Z,33.70
2022-09-01T02:46:06.883Z,33.70
2022-09-01T02:48:42.288Z,33.71
2022-09-01T02:51:22.976Z,33.71
2022-09-01T02:53:53.341Z,33.70
2022-09-01T02:56:28.469Z,33.70
2022-09-01T02:59:02.765Z,33.68
2022-09-01T03:01:36.501Z,33.67
2022-09-01T03:04:15.764Z,33.66
2022-09-01T03:06:55.332Z,33.67
2022-09-01T03:09:25.785Z,33.67
2022-09-01T03:11:57.631Z,33.69
2022-09-01T03:14:46.603Z,33.69
2022-09-01T03:17:17.295Z,33.68
2022-09-01T03:19:47.689Z,33.68
2022-09-01T03:22:31.708Z,33.68
2022-09-01T03:25:02.999Z,33.66
2022-09-01T03:27:34.145Z,33.65
2022-09-01T03:30:08.071Z,33.67
2022-09-01T03:32:39.344Z,33.67
2022-09-01T03:35:11.420Z,33.68
2022-09-01T03:37:44.866Z,33.68
2022-09-01T03:40:19.011Z,33.68
2022-09-01T03:42:49.915Z,33.70
2022-09-01T03:45:22.665Z,33.71
2022-09-01T03:47:54.965Z,33.71
2022-09-01T03:50:29.650Z,33.72
2022-09-01T03:53:03.298Z,33.72
2022-09-01T03:55:48.000Z,33.73
2022-09-01T03:58:21.530Z,33.75
2022-09-01T04:01:03.477Z,33.75
2022-09-01T04:03:36.766Z,33.74
2022-09-01T04:06:13.203Z,33.75
2022-09-01T04:08:43.851Z,33.76
2022-09-01T04:11:19.208Z,33.77
2022-09-01T04:13:49.401Z,33.78
2022-09-01T04:16:45.047Z,33.79
2022-09-01T04:19:26.977Z,33.79
2022-09-01T04:22:00.448Z,33.79
2022-09-01T04:24:35.293Z,33.81
2022-09-01T04:27:08.278Z,33.85
2022-09-01T04:29:41.460Z,33.87
2022-09-01T04:32:13.871Z,33.89
2022-09-01T04:34:44.333Z,33.91
2022-09-01T04:37:29.102Z,33.94
2022-09-01T04:40:03.451Z,33.95
2022-09-01T04:42:35.469Z,33.97
2022-09-01T04:45:11.621Z,34.00
2022-09-01T04:47:43.771Z,34.01
2022-09-01T04:50:18.130Z,33.99
2022-09-01T04:52:49.144Z,34.02
2022-09-01T04:55:21.096Z,34.05
2022-09-01T04:57:53.779Z,34.07
2022-09-01T05:00:32.906Z,34.09
2022-09-01T05:03:07.400Z,34.09
2022-09-01T05:05:47.558Z,34.11
2022-09-01T05:08:24.727Z,34.15
2022-09-01T05:10:57.244Z,34.19
2022-09-01T05:13:30.137Z,34.24
2022-09-01T05:16:13.566Z,34.29
2022-09-01T05:18:49.368Z,34.31
2022-09-01T05:21:26.941Z,34.35
2022-09-01T05:24:06.312Z,34.40
2022-09-01T05:26:41.558Z,34.43
2022-09-01T05:29:18.188Z,34.47
2022-09-01T05:31:50.795Z,34.48
2022-09-01T05:34:32.939Z,34.51
2022-09-01T05:37:04.165Z,34.56
2022-09-01T05:39:36.550Z,34.60
2022-09-01T05:42:09.596Z,34.66
2022-09-01T05:44:45.405Z,34.72
2022-09-01T05:47:20.743Z,34.77
2022-09-01T05:49:54.200Z,34.82
2022-09-01T05:52:27.646Z,34.87
2022-09-01T05:55:00.907Z,34.92
2022-09-01T05:57:40.371Z,34.97
2022-09-01T06:00:13.878Z,35.00
2022-09-01T06:02:45.797Z,35.02
2022-09-01T06:05:27.544Z,35.09
2022-09-01T06:07:57.907Z,35.11
2022-09-01T06:10:29.092Z,35.17
2022-09-01T06:13:02.959Z,35.22
2022-09-01T06:15:34.438Z,35.27
2022-09-01T06:18:07.957Z,35.34
2022-09-01T06:20:52.544Z,35.39
2022-09-01T06:23:24.237Z,35.44
2022-09-01T06:25:54.410Z,35.48
2022-09-01T06:28:25.319Z,35.47
2022-09-01T06:30:57.926Z,35.45
2022-09-01T06:33:28.541Z,35.47
2022-09-01T06:36:05.286Z,35.51
2022-09-01T06:38:35.688Z,35.54
2022-09-01T06:41:16.039Z,35.57
2022-09-01T06:43:50.791Z,35.57
2022-09-01T06:46:22.022Z,35.61
2022-09-01T06:48:57.992Z,35.63
2022-09-01T06:51:34.771Z,35.63
2022-09-01T06:54:11.316Z,35.63
2022-09-01T06:56:51.816Z,35.62
2022-09-01T06:59:34.839Z,35.62
2022-09-01T07:02:07.196Z,35.60
2022-09-01T07:04:45.535Z,35.63
2022-09-01T07:10:24.488Z,35.72
2022-09-01T07:13:12.172Z,35.77
2022-09-01T07:18:36.054Z,35.81
2022-09-01T07:21:38.698Z,35.84
2022-09-01T07:24:26.626Z,35.83
2022-09-01T07:27:09.242Z,35.85
2022-09-01T07:29:41.707Z,35.89
2022-09-01T07:35:05.854Z,35.99
2022-09-01T07:43:32.771Z,36.14
2022-09-01T07:49:28.505Z,36.25
2022-09-01T07:51:56.035Z,36.31
2022-09-01T07:54:30.871Z,36.38
2022-09-01T07:57:03.577Z,36.45
2022-09-01T07:59:33.989Z,36.52
2022-09-01T08:02:07.117Z,36.57
2022-09-01T08:04:40.764Z,36.60
2022-09-01T08:07:16.231Z,36.63
2022-09-01T08:09:46.624Z,36.67
2022-09-01T08:12:20.061Z,36.71
2022-09-01T08:17:53.189Z,36.77
2022-09-01T08:20:24.814Z,36.78
2022-09-01T08:22:55.318Z,36.79
2022-09-01T08:25:27.295Z,36.81
2022-09-01T08:28:00.301Z,36.82
2022-09-01T08:30:39.674Z,36.82
2022-09-01T08:33:12.619Z,36.86
2022-09-01T08:35:48.996Z,36.91
2022-09-01T08:38:19.696Z,36.95
2022-09-01T08:41:16.996Z,37.00
2022-09-01T08:44:05.070Z,37.01
2022-09-01T08:46:42.033Z,37.03
2022-09-01T08:49:26.784Z,37.08
2022-09-01T08:52:10.336Z,37.09
2022-09-01T08:54:50.169Z,37.11
2022-09-01T08:57:26.414Z,37.14
2022-09-01T09:00:02.647Z,37.13
2022-09-01T09:03:20.883Z,37.09
2022-09-01T09:06:23.465Z,37.09
2022-09-01T09:09:05.094Z,37.11
2022-09-01T09:12:05.302Z,37.12
2022-09-01T09:14:54.255Z,37.12
2022-09-01T09:17:38.068Z,37.15
2022-09-01T09:20:10.140Z,37.12
2022-09-01T09:22:41.939Z,37.09
2022-09-01T09:25:19.242Z,37.10
2022-09-01T09:28:02.534Z,37.11
2022-09-01T09:30:34.102Z,37.10
2022-09-01T09:33:46.678Z,37.13
2022-09-01T09:36:25.449Z,37.15
2022-09-01T09:39:17.054Z,37.17
2022-09-01T09:42:09.875Z,37.20
2022-09-01T09:44:51.108Z,37.23
2022-09-01T09:47:47.172Z,37.25
2022-09-01T09:50:27.839Z,37.25
2022-09-01T09:53:20.603Z,37.26
2022-09-01T09:56:04.652Z,37.27
2022-09-01T09:58:44.205Z,37.28
2022-09-01T10:01:38.430Z,37.30
2022-09-01T10:04:08.774Z,37.30
2022-09-01T10:06:47.523Z,37.34
2022-09-01T10:09:48.230Z,37.32
2022-09-01T10:12:19.277Z,37.30
2022-09-01T10:15:15.649Z,37.30
2022-09-01T10:18:21.754Z,37.29
2022-09-01T10:21:01.750Z,37.27
2022-09-01T10:23:37.597Z,37.25
2022-09-01T10:26:18.896Z,37.25
2022-09-01T10:29:08.410Z,37.27
2022-09-01T10:31:44.121Z,37.23
2022-09-01T10:34:32.561Z,37.22
2022-09-01T10:37:10.216Z,37.20
2022-09-01T10:40:43.251Z,37.14
2022-09-01T10:43:41.710Z,37.09
2022-09-01T10:46:50.928Z,37.06
2022-09-01T10:50:07.487Z,37.06
2022-09-01T10:53:06.914Z,37.07
2022-09-01T11:02:27.496Z,36.97
2022-09-01T11:05:21.457Z,36.92
2022-09-01T11:08:01.342Z,36.89
2022-09-01T11:10:59.007Z,36.88
2022-09-01T11:13:50.120Z,36.91
2022-09-01T11:16:52.776Z,36.92
2022-09-01T11:19:44.385Z,36.90
2022-09-01T11:22:34.666Z,36.90
2022-09-01T11:25:42.923Z,36.91
2022-09-01T11:28:53.683Z,36.88
2022-09-01T11:31:46.474Z,36.85
2022-09-01T11:34:23.913Z,36.84
2022-09-01T11:37:04.276Z,36.82
2022-09-01T11:39:43.957Z,36.78
2022-09-01T11:42:21.888Z,36.71
2022-09-01T11:45:02.697Z,36.66
2022-09-01T11:47:41.957Z,36.65
2022-09-01T11:50:25.181Z,36.64
2022-09-01T11:53:12.240Z,36.62
2022-09-01T11:55:46.496Z,36.58
2022-09-01T11:58:39.749Z,36.58
2022-09-01T12:01:22.833Z,36.55
2022-09-01T12:03:54.844Z,36.51
2022-09-01T12:06:32.019Z,36.50
2022-09-01T12:09:09.251Z,36.49
2022-09-01T12:12:26.604Z,36.47
2022-09-01T12:15:08.243Z,36.40
2022-09-01T12:17:41.903Z,36.37
2022-09-01T12:20:33.666Z,36.36
2022-09-01T12:23:04.235Z,36.31
2022-09-01T12:25:37.803Z,36.28
2022-09-01T12:28:10.966Z,36.27
2022-09-01T12:30:57.505Z,36.26
2022-09-01T12:33:31.739Z,36.24
2022-09-01T12:36:37.762Z,36.23
2022-09-01T12:39:27.238Z,36.20
2022-09-01T12:42:29.500Z,36.16
2022-09-01T12:45:16.719Z,36.14
2022-09-01T12:48:03.038Z,36.15
2022-09-01T12:50:52.469Z,36.13
2022-09-01T12:53:36.503Z,36.13
2022-09-01T12:56:31.862Z,36.12
2022-09-01T12:59:17.919Z,36.09
2022-09-01T13:01:53.627Z,36.04
2022-09-01T13:04:31.590Z,36.02
2022-09-01T13:07:09.570Z,36.01
2022-09-01T13:09:39.919Z,35.96
2022-09-01T13:12:24.922Z,35.91
2022-09-01T13:14:55.831Z,35.84
2022-09-01T13:17:26.914Z,35.80
2022-09-01T13:19:57.528Z,35.79
2022-09-01T13:22:29.727Z,35.78
2022-09-01T13:25:00.928Z,35.73
2022-09-01T13:27:32.538Z,35.71
2022-09-01T13:30:05.070Z,35.71
2022-09-01T13:32:35.826Z,35.72
2022-09-01T13:35:36.342Z,35.72
2022-09-01T13:38:10.012Z,35.70
2022-09-01T13:40:47.298Z,35.65
2022-09-01T13:43:22.282Z,35.62
2022-09-01T13:45:53.440Z,35.62
2022-09-01T13:49:02.348Z,35.64
2022-09-01T13:51:28.473Z,35.64
2022-09-01T13:54:03.511Z,35.63
2022-09-01T13:56:34.283Z,35.61
2022-09-01T13:59:05.526Z,35.60
2022-09-01T14:01:36.004Z,35.61
2022-09-01T14:04:06.853Z,35.58
2022-09-01T14:06:42.034Z,35.56
2022-09-01T14:09:17.757Z,35.55
2022-09-01T14:11:48.543Z,35.48
2022-09-01T14:14:19.034Z,35.43
2022-09-01T14:16:49.954Z,35.40
2022-09-01T14:19:21.496Z,35.33
2022-09-01T14:21:51.840Z,35.28
2022-09-01T14:24:24.352Z,35.28
2022-09-01T14:26:54.974Z,35.25
2022-09-01T14:29:25.600Z,35.24
2022-09-01T14:31:56.432Z,35.22
2022-09-01T14:34:27.226Z,35.17
2022-09-01T14:36:58.857Z,35.14
2022-09-01T14:39:35.954Z,35.12
2022-09-01T14:42:08.342Z,35.12
2022-09-01T14:44:53.580Z,35.14
2022-09-01T14:47:26.770Z,35.14
2022-09-01T14:49:58.604Z,35.15
2022-09-01T14:52:38.699Z,35.15
2022-09-01T14:55:14.399Z,35.16
2022-09-01T14:57:44.944Z,35.15
2022-09-01T15:00:19.329Z,35.14
2022-09-01T15:02:50.263Z,35.09
2022-09-01T15:05:21.560Z,35.09
2022-09-01T15:07:53.266Z,35.10
2022-09-01T15:10:33.808Z,35.10
2022-09-01T15:13:11.835Z,35.10
2022-09-01T15:15:47.899Z,35.08
2022-09-01T15:18:22.317Z,35.04
2022-09-01T15:20:58.261Z,35.00
2022-09-01T15:24:00.105Z,34.99
2022-09-01T15:26:43.041Z,34.99
2022-09-01T15:32:10.294Z,34.95
2022-09-01T15:34:53.873Z,34.92
2022-09-01T15:37:26.050Z,34.88
2022-09-01T15:39:59.473Z,34.86
2022-09-01T15:42:36.400Z,34.83
2022-09-01T15:45:12.063Z,34.81
2022-09-01T15:47:46.574Z,34.79
2022-09-01T15:50:22.231Z,34.80
2022-09-01T15:53:16.035Z,34.79
2022-09-01T15:55:48.840Z,34.77
2022-09-01T15:58:24.748Z,34.75
2022-09-01T16:01:02.255Z,34.72
2022-09-01T16:03:35.321Z,34.72
2022-09-01T16:06:07.404Z,34.70
2022-09-01T16:08:42.850Z,34.66
2022-09-01T16:11:16.553Z,34.61
2022-09-01T16:13:56.174Z,34.57
2022-09-01T16:16:53.158Z,34.53
2022-09-01T16:19:41.709Z,34.52
2022-09-01T16:22:24.994Z,34.50
2022-09-01T16:25:04.066Z,34.48
2022-09-01T16:27:45.211Z,34.49
2022-09-01T16:30:28.538Z,34.46
2022-09-01T16:33:20.934Z,34.43
2022-09-01T16:36:18.538Z,34.41
2022-09-01T16:38:58.191Z,34.41
2022-09-01T16:41:53.753Z,34.40
2022-09-01T16:44:46.583Z,34.40
2022-09-01T16:47:49.492Z,34.39
2022-09-01T16:50:51.605Z,34.38
2022-09-01T16:53:41.079Z,34.36
2022-09-01T16:56:18.441Z,34.34
2022-09-01T16:59:00.581Z,34.33
2022-09-01T17:01:46.601Z,34.32
2022-09-01T17:04:56.921Z,34.32
2022-09-01T17:07:52.425Z,34.30
2022-09-01T17:10:43.488Z,34.31
2022-09-01T17:13:23.099Z,34.32
2022-09-01T17:16:07.078Z,34.31
2022-09-01T17:18:51.073Z,34.28
2022-09-01T17:21:36.537Z,34.24
2022-09-01T17:24:35.129Z,34.23
2022-09-01T17:27:23.204Z,34.22
2022-09-01T17:30:01.734Z,34.22
2022-09-01T17:32:59.855Z,34.22
2022-09-01T17:35:42.494Z,34.22
2022-09-01T17:38:31.826Z,34.22
2022-09-01T17:41:35.189Z,34.22
2022-09-01T17:44:29.762Z,34.21
2022-09-01T17:47:13.262Z,34.23
2022-09-01T17:49:56.843Z,34.24
2022-09-01T17:52:52.594Z,34.27
2022-09-01T17:55:52.156Z,34.27
2022-09-01T17:58:55.998Z,34.26
2022-09-01T18:01:44.254Z,34.27
2022-09-01T18:04:59.977Z,34.24
2022-09-01T18:07:51.237Z,34.19
2022-09-01T18:10:32.438Z,34.14
2022-09-01T18:13:08.874Z,34.10
2022-09-01T18:15:53.670Z,34.11
2022-09-01T18:18:42.227Z,34.12
2022-09-01T18:21:20.896Z,34.13
2022-09-01T18:24:02.981Z,34.15
2022-09-01T18:26:46.907Z,34.17
2022-09-01T18:29:32.197Z,34.19
2022-09-01T18:32:34.198Z,34.19
2022-09-01T18:35:18.849Z,34.22
2022-09-01T18:41:32.453Z,34.18
2022-09-01T18:44:22.506Z,34.19
2022-09-01T18:47:03.598Z,34.20
2022-09-01T18:49:45.131Z,34.22
2022-09-01T18:52:38.612Z,34.23
2022-09-01T18:55:22.277Z,34.24
2022-09-01T18:58:00.269Z,34.23
2022-09-01T19:00:41.939Z,34.22
2022-09-01T19:03:28.572Z,34.23
2022-09-01T19:06:32.163Z,34.20
2022-09-01T19:09:16.983Z,34.19
2022-09-01T19:12:10.885Z,34.17
2022-09-01T19:14:55.441Z,34.14
2022-09-01T19:18:09.908Z,34.11
2022-09-01T19:20:52.417Z,34.12
2022-09-01T19:23:36.323Z,34.13
2022-09-01T19:26:17.142Z,34.14
2022-09-01T19:28:53.382Z,34.16
2022-09-01T19:31:28.626Z,34.17
2022-09-01T19:34:05.764Z,34.15
2022-09-01T19:36:43.067Z,34.14
2022-09-01T19:39:18.534Z,34.11
2022-09-01T19:41:57.293Z,34.12
2022-09-01T19:44:37.846Z,34.11
2022-09-01T19:47:17.938Z,34.13
2022-09-01T19:50:02.045Z,34.11
2022-09-01T19:52:41.037Z,34.11
2022-09-01T19:55:19.468Z,34.11
2022-09-01T19:57:58.806Z,34.13
2022-09-01T20:00:45.697Z,34.11
2022-09-01T20:03:28.653Z,34.11
2022-09-01T20:06:06.360Z,34.10
2022-09-01T20:08:44.651Z,34.11
2022-09-01T20:11:23.060Z,34.12
2022-09-01T20:14:18.920Z,34.11
2022-09-01T20:16:53.435Z,34.09
2022-09-01T20:19:32.178Z,34.08
2022-09-01T20:22:23.903Z,34.05
2022-09-01T20:25:11.102Z,34.05
2022-09-01T20:27:54.638Z,34.04
2022-09-01T20:30:28.093Z,34.05
2022-09-01T20:33:07.715Z,34.08
2022-09-01T20:35:48.310Z,34.07
2022-09-01T20:38:44.683Z,34.10
2022-09-01T20:41:25.390Z,34.07
2022-09-01T20:43:58.593Z,34.07
2022-09-01T20:46:30.223Z,34.10
2022-09-01T20:49:03.032Z,34.10
2022-09-01T20:51:47.370Z,34.10
2022-09-01T20:54:38.958Z,34.07
2022-09-01T20:57:28.578Z,34.03
2022-09-01T21:00:11.814Z,34.03
2022-09-01T21:02:57.237Z,34.04
2022-09-01T21:05:44.136Z,34.03
2022-09-01T21:08:40.459Z,34.00
2022-09-01T21:11:28.739Z,33.96
2022-09-01T21:14:22.861Z,33.93
2022-09-01T21:17:17.180Z,33.90
2022-09-01T21:20:02.595Z,33.91
2022-09-01T21:22:33.332Z,33.90
2022-09-01T21:25:05.007Z,33.91
2022-09-01T21:27:45.462Z,33.93
2022-09-01T21:30:19.025Z,33.92
2022-09-01T21:32:50.187Z,33.93
2022-09-01T21:35:23.237Z,33.93
2022-09-01T21:37:55.017Z,33.91
2022-09-01T21:40:28.826Z,33.93
2022-09-01T21:43:11.694Z,33.93
2022-09-01T21:45:42.312Z,33.92
2022-09-01T21:48:12.969Z,33.91
2022-09-01T21:50:45.204Z,33.89
2022-09-01T21:53:16.486Z,33.88
2022-09-01T21:55:47.572Z,33.88
2022-09-01T21:58:20.476Z,33.89
2022-09-01T22:00:51.689Z,33.90
2022-09-01T22:03:22.689Z,33.91
2022-09-01T22:05:53.453Z,33.93
2022-09-01T22:08:24.654Z,33.92
2022-09-01T22:10:57.259Z,33.93
2022-09-01T22:13:30.662Z,33.94
2022-09-01T22:16:01.518Z,33.94
2022-09-01T22:18:32.318Z,33.95
2022-09-01T22:21:08.262Z,33.95
2022-09-01T22:23:39.756Z,33.91
2022-09-01T22:26:15.464Z,33.90
2022-09-01T22:28:48.906Z,33.89
2022-09-01T22:31:22.746Z,33.90
2022-09-01T22:33:53.895Z,33.90
2022-09-01T22:36:27.682Z,33.90
2022-09-01T22:39:00.147Z,33.88
2022-09-01T22:41:34.363Z,33.89
2022-09-01T22:44:08.285Z,33.87
2022-09-01T22:46:40.831Z,33.86
2022-09-01T22:49:12.990Z,33.84
2022-09-01T22:51:44.987Z,33.81
2022-09-01T22:54:16.462Z,33.81
2022-09-01T22:56:50.187Z,33.80
2022-09-01T22:59:23.601Z,33.79
2022-09-01T23:01:55.450Z,33.80
2022-09-01T23:04:27.207Z,33.81
2022-09-01T23:06:58.619Z,33.80
2022-09-01T23:09:29.228Z,33.80
2022-09-01T23:11:59.669Z,33.81
2022-09-01T23:14:31.960Z,33.82
2022-09-01T23:17:02.460Z,33.81
2022-09-01T23:19:32.631Z,33.79
2022-09-01T23:22:03.675Z,33.79
2022-09-01T23:24:34.113Z,33.77
2022-09-01T23:27:04.665Z,33.77
2022-09-01T23:29:37.438Z,33.79
2022-09-01T23:32:09.033Z,33.81
2022-09-01T23:34:40.776Z,33.81
2022-09-01T23:37:12.021Z,33.82
2022-09-01T23:39:43.199Z,33.83
2022-09-01T23:42:13.927Z,33.85
2022-09-01T23:44:46.367Z,33.84
2022-09-01T23:47:16.847Z,33.81
2022-09-01T23:49:47.248Z,33.80
2022-09-01T23:52:18.638Z,33.80
2022-09-01T23:54:49.818Z,33.81
2022-09-01T23:57:19.934Z,33.81
2022-09-01T23:59:52.621Z,33.81
